createdAt,value
2018-07-22T00:02:24.600Z,19.68
2018-07-22T00:04:52.294Z,19.71
2018-07-22T00:07:19.902Z,19.66
2018-07-22T00:09:47.533Z,19.50
2018-07-22T00:12:15.164Z,19.57
2018-07-22T00:14:42.810Z,19.74
2018-07-22T00:17:10.688Z,19.75
2018-07-22T00:19:38.428Z,19.73
2018-07-22T00:22:06.081Z,19.78
2018-07-22T00:24:33.781Z,19.67
2018-07-22T00:27:01.414Z,19.71
2018-07-22T00:29:29.147Z,19.75
2018-07-22T00:31:56.775Z,19.82
2018-07-22T00:34:24.554Z,19.75
2018-07-22T00:36:52.198Z,19.68
2018-07-22T00:39:19.780Z,19.58
2018-07-22T00:41:47.450Z,19.69
2018-07-22T00:44:15.149Z,19.62
2018-07-22T00:46:42.745Z,19.56
2018-07-22T00:49:10.446Z,19.67
2018-07-22T00:51:38.137Z,19.58
2018-07-22T00:54:05.801Z,19.63
2018-07-22T00:56:33.403Z,19.66
2018-07-22T00:59:01.143Z,19.58
2018-07-22T01:01:28.829Z,19.51
2018-07-22T01:03:56.459Z,19.48
2018-07-22T01:06:24.170Z,19.59
2018-07-22T01:08:51.777Z,19.77
2018-07-22T01:11:19.433Z,19.68
2018-07-22T01:13:47.049Z,19.65
2018-07-22T01:16:14.754Z,19.60
2018-07-22T01:18:42.336Z,19.61
2018-07-22T01:21:10.053Z,19.56
2018-07-22T01:23:37.713Z,19.65
2018-07-22T01:26:05.422Z,19.33
2018-07-22T01:28:33.125Z,19.21
2018-07-22T01:31:00.765Z,19.21
2018-07-22T01:33:28.446Z,19.25
2018-07-22T01:35:56.172Z,19.28
2018-07-22T01:38:23.786Z,19.30
2018-07-22T01:40:51.541Z,19.31
2018-07-22T01:43:19.168Z,19.45
2018-07-22T01:45:46.780Z,19.51
2018-07-22T01:48:14.449Z,19.56
2018-07-22T01:50:42.074Z,19.66
2018-07-22T01:53:09.867Z,19.75
2018-07-22T01:55:37.524Z,19.82
2018-07-22T01:58:05.262Z,19.82
2018-07-22T02:00:32.872Z,19.77
2018-07-22T02:03:00.562Z,19.81
2018-07-22T02:05:29.035Z,19.76
2018-07-22T02:07:57.006Z,19.87
2018-07-22T02:10:36.726Z,19.87
2018-07-22T02:13:04.582Z,19.94
2018-07-22T02:15:32.290Z,19.95
2018-07-22T02:17:59.929Z,19.97
2018-07-22T02:20:27.689Z,19.96
2018-07-22T02:22:55.321Z,20.01
2018-07-22T02:25:23.034Z,19.94
2018-07-22T02:27:50.670Z,19.91
2018-07-22T02:30:18.375Z,19.88
2018-07-22T02:32:46.115Z,19.85
2018-07-22T02:35:13.753Z,19.84
2018-07-22T02:37:41.455Z,19.90
2018-07-22T02:40:09.146Z,19.84
2018-07-22T02:42:36.994Z,19.65
2018-07-22T02:45:04.837Z,19.43
2018-07-22T02:47:32.469Z,19.57
2018-07-22T02:50:00.171Z,19.49
2018-07-22T02:52:27.822Z,19.40
2018-07-22T02:54:55.467Z,19.46
2018-07-22T02:57:23.100Z,19.39
2018-07-22T02:59:50.825Z,19.34
2018-07-22T03:02:18.493Z,19.40
2018-07-22T03:04:46.257Z,19.48
2018-07-22T03:07:13.923Z,19.55
2018-07-22T03:09:41.657Z,19.32
2018-07-22T03:12:09.377Z,19.03
2018-07-22T03:14:37.001Z,19.09
2018-07-22T03:17:04.780Z,19.01
2018-07-22T03:19:32.410Z,19.04
2018-07-22T03:22:00.122Z,19.19
2018-07-22T03:24:27.864Z,19.24
2018-07-22T03:26:55.506Z,19.29
2018-07-22T03:29:23.157Z,19.40
2018-07-22T03:31:50.901Z,19.38
2018-07-22T03:34:18.585Z,19.21
2018-07-22T03:36:46.247Z,19.23
2018-07-22T03:39:13.868Z,19.33
2018-07-22T03:41:41.598Z,19.35
2018-07-22T03:44:09.266Z,19.25
2018-07-22T03:46:36.868Z,19.33
2018-07-22T03:49:04.552Z,19.26
2018-07-22T03:51:32.246Z,19.34
2018-07-22T03:53:59.958Z,19.43
2018-07-22T03:56:27.713Z,19.58
2018-07-22T03:58:55.322Z,19.45
2018-07-22T04:01:23.026Z,19.52
2018-07-22T04:03:50.725Z,19.48
2018-07-22T04:06:18.474Z,19.57
2018-07-22T04:08:46.177Z,19.66
2018-07-22T04:11:13.845Z,19.72
2018-07-22T04:13:41.574Z,19.74
2018-07-22T04:16:09.320Z,19.77
2018-07-22T04:18:43.633Z,19.71
2018-07-22T04:21:11.373Z,19.40
2018-07-22T04:23:39.137Z,19.31
2018-07-22T04:26:06.779Z,19.36
2018-07-22T04:28:34.443Z,19.48
2018-07-22T04:31:02.130Z,19.62
2018-07-22T04:33:29.805Z,19.78
2018-07-22T04:35:57.417Z,19.66
2018-07-22T04:38:25.107Z,19.77
2018-07-22T04:40:52.843Z,19.88
2018-07-22T04:43:20.456Z,20.01
2018-07-22T04:45:48.073Z,20.07
2018-07-22T04:48:15.758Z,19.99
2018-07-22T04:50:43.448Z,20.05
2018-07-22T04:53:11.212Z,20.14
2018-07-22T04:55:38.953Z,20.24
2018-07-22T04:58:06.693Z,20.27
2018-07-22T05:00:34.426Z,20.28
2018-07-22T05:03:02.069Z,20.29
2018-07-22T05:05:29.788Z,20.13
2018-07-22T05:07:57.458Z,20.18
2018-07-22T05:10:37.205Z,20.30
2018-07-22T05:13:05.029Z,20.29
2018-07-22T05:15:32.778Z,20.35
2018-07-22T05:18:00.554Z,20.47
2018-07-22T05:20:28.265Z,20.48
2018-07-22T05:22:56.020Z,20.17
2018-07-22T05:25:23.941Z,20.30
2018-07-22T05:27:51.584Z,20.36
2018-07-22T05:30:19.277Z,20.47
2018-07-22T05:32:46.903Z,20.44
2018-07-22T05:35:14.548Z,20.35
2018-07-22T05:37:42.185Z,20.38
2018-07-22T05:40:09.870Z,20.37
2018-07-22T05:42:37.549Z,20.31
2018-07-22T05:45:05.395Z,20.24
2018-07-22T05:47:33.126Z,20.30
2018-07-22T05:50:01.497Z,20.25
2018-07-22T05:52:29.479Z,20.17
2018-07-22T05:54:57.160Z,20.16
2018-07-22T05:57:25.042Z,20.26
2018-07-22T05:59:52.731Z,20.34
2018-07-22T06:02:20.490Z,20.32
2018-07-22T06:04:48.336Z,20.35
2018-07-22T06:07:15.998Z,20.27
2018-07-22T06:09:43.678Z,20.50
2018-07-22T06:12:11.377Z,20.46
2018-07-22T06:14:39.137Z,20.59
2018-07-22T06:17:07.001Z,20.60
2018-07-22T06:19:34.679Z,20.61
2018-07-22T06:22:02.397Z,20.63
2018-07-22T06:24:30.071Z,20.80
2018-07-22T06:26:57.754Z,20.85
2018-07-22T06:29:25.452Z,20.85
2018-07-22T06:31:53.172Z,21.11
2018-07-22T06:34:20.837Z,21.13
2018-07-22T06:36:48.630Z,21.26
2018-07-22T06:39:16.319Z,21.41
2018-07-22T06:41:44.390Z,21.42
2018-07-22T06:44:12.106Z,21.50
2018-07-22T06:46:39.802Z,21.51
2018-07-22T06:49:07.524Z,21.54
2018-07-22T06:51:35.222Z,21.72
2018-07-22T06:54:03.190Z,21.65
2018-07-22T06:56:30.937Z,21.80
2018-07-22T06:58:58.626Z,21.83
2018-07-22T07:01:26.389Z,21.87
2018-07-22T07:03:54.183Z,22.03
2018-07-22T07:06:21.947Z,22.04
2018-07-22T07:11:16.853Z,22.14
2018-07-22T07:13:44.570Z,22.23
2018-07-22T07:16:12.346Z,22.25
2018-07-22T07:18:40.018Z,22.24
2018-07-22T07:21:07.697Z,22.31
2018-07-22T07:23:35.464Z,22.49
2018-07-22T07:26:03.143Z,22.56
2018-07-22T07:28:30.887Z,22.49
2018-07-22T07:30:58.654Z,22.67
2018-07-22T07:33:26.483Z,22.96
2018-07-22T07:35:54.178Z,22.83
2018-07-22T07:38:21.917Z,22.97
2018-07-22T07:40:49.718Z,23.03
2018-07-22T07:43:18.318Z,23.28
2018-07-22T07:45:46.034Z,23.52
2018-07-22T07:48:13.869Z,24.01
2018-07-22T07:50:41.631Z,24.38
2018-07-22T07:53:09.360Z,24.39
2018-07-22T07:55:37.136Z,24.72
2018-07-22T07:58:04.925Z,24.59
2018-07-22T08:00:32.626Z,24.75
2018-07-22T08:03:00.250Z,24.76
2018-07-22T08:05:28.076Z,24.72
2018-07-22T08:07:55.680Z,24.79
2018-07-22T08:10:37.177Z,24.95
2018-07-22T08:13:05.613Z,25.27
2018-07-22T08:15:33.290Z,25.39
2018-07-22T08:18:01.030Z,25.67
2018-07-22T08:20:28.906Z,25.54
2018-07-22T08:22:56.674Z,25.86
2018-07-22T08:25:24.497Z,26.31
2018-07-22T08:27:52.222Z,26.59
2018-07-22T08:30:19.944Z,26.59
2018-07-22T08:32:47.761Z,26.29
2018-07-22T08:35:15.431Z,26.57
2018-07-22T08:37:43.186Z,26.39
2018-07-22T08:40:10.937Z,26.29
2018-07-22T08:42:38.605Z,26.02
2018-07-22T08:45:06.765Z,26.15
2018-07-22T08:47:34.480Z,26.23
2018-07-22T08:50:02.228Z,26.57
2018-07-22T08:52:29.996Z,26.89
2018-07-22T08:54:57.653Z,26.93
2018-07-22T08:57:25.469Z,27.05
2018-07-22T08:59:53.239Z,26.95
2018-07-22T09:02:21.034Z,26.86
2018-07-22T09:04:48.865Z,26.99
2018-07-22T09:07:16.553Z,26.88
2018-07-22T09:09:44.242Z,27.04
2018-07-22T09:12:12.046Z,27.13
2018-07-22T09:14:39.916Z,27.20
2018-07-22T09:17:07.701Z,27.27
2018-07-22T09:19:35.356Z,27.59
2018-07-22T09:22:03.038Z,27.45
2018-07-22T09:24:31.252Z,27.59
2018-07-22T09:26:59.024Z,27.83
2018-07-22T09:29:27.034Z,28.14
2018-07-22T09:31:54.765Z,28.28
2018-07-22T09:34:22.417Z,28.52
2018-07-22T09:36:50.085Z,28.87
2018-07-22T09:39:17.712Z,28.64
2018-07-22T09:41:45.429Z,28.97
2018-07-22T09:44:13.054Z,28.93
2018-07-22T09:46:40.701Z,28.98
2018-07-22T09:49:08.433Z,29.22
2018-07-22T09:51:36.109Z,29.49
2018-07-22T09:54:03.922Z,29.54
2018-07-22T09:56:31.561Z,29.32
2018-07-22T09:58:59.501Z,29.46
2018-07-22T10:01:27.109Z,29.48
2018-07-22T10:03:54.734Z,29.48
2018-07-22T10:06:22.522Z,29.42
2018-07-22T10:22:57.851Z,29.43
2018-07-22T10:25:25.539Z,29.38
2018-07-22T10:27:53.470Z,29.21
2018-07-22T10:30:21.236Z,28.64
2018-07-22T10:32:49.336Z,28.56
2018-07-22T10:35:17.064Z,28.19
2018-07-22T10:37:44.910Z,28.02
2018-07-22T10:40:13.400Z,28.30
2018-07-22T10:42:41.288Z,28.54
2018-07-22T10:45:09.091Z,28.68
2018-07-22T10:47:37.246Z,28.47
2018-07-22T10:50:05.274Z,28.21
2018-07-22T10:52:33.279Z,28.25
2018-07-22T10:55:01.002Z,28.36
2018-07-22T10:57:28.843Z,28.18
2018-07-22T10:59:56.675Z,28.32
2018-07-22T11:02:24.640Z,28.48
2018-07-22T11:04:52.914Z,28.71
2018-07-22T11:07:21.354Z,28.71
2018-07-22T11:09:49.695Z,28.80
2018-07-22T11:12:17.507Z,28.92
2018-07-22T11:14:45.300Z,29.07
2018-07-22T11:17:13.358Z,29.08
2018-07-22T11:19:41.186Z,28.41
2018-07-22T11:22:09.287Z,27.92
2018-07-22T11:24:37.118Z,28.29
2018-07-22T11:27:05.291Z,28.41
2018-07-22T11:29:33.287Z,28.66
2018-07-22T11:32:01.170Z,28.44
2018-07-22T11:34:28.961Z,28.93
2018-07-22T11:36:57.740Z,29.21
2018-07-22T11:39:25.726Z,29.38
2018-07-22T11:41:53.454Z,28.87
2018-07-22T11:44:21.440Z,29.04
2018-07-22T11:46:49.143Z,29.42
2018-07-22T11:49:16.835Z,29.54
2018-07-22T11:51:44.591Z,29.77
2018-07-22T11:54:12.302Z,29.54
2018-07-22T11:56:40.047Z,29.96
2018-07-22T11:59:07.778Z,30.09
2018-07-22T12:01:35.587Z,30.66
2018-07-22T12:04:03.327Z,30.45
2018-07-22T12:06:31.055Z,29.91
2018-07-22T12:08:58.771Z,30.33
2018-07-22T12:11:26.731Z,30.78
2018-07-22T12:13:54.465Z,30.89
2018-07-22T12:16:22.202Z,31.40
2018-07-22T12:18:50.851Z,31.66
2018-07-22T12:21:18.567Z,32.03
2018-07-22T12:23:46.289Z,31.71
2018-07-22T12:26:13.986Z,32.00
2018-07-22T12:28:41.715Z,31.85
2018-07-22T12:31:09.483Z,31.02
2018-07-22T12:33:37.211Z,30.16
2018-07-22T12:36:05.671Z,29.87
2018-07-22T12:38:33.384Z,30.08
2018-07-22T12:41:01.119Z,29.99
2018-07-22T12:43:28.846Z,30.13
2018-07-22T12:45:56.567Z,30.10
2018-07-22T12:48:24.298Z,30.34
2018-07-22T12:50:52.015Z,30.52
2018-07-22T12:53:19.751Z,30.79
2018-07-22T12:55:47.532Z,30.39
2018-07-22T12:58:15.311Z,30.19
2018-07-22T13:00:43.051Z,30.21
2018-07-22T13:03:11.026Z,30.26
2018-07-22T13:05:38.767Z,30.45
2018-07-22T13:08:06.839Z,30.98
2018-07-22T13:10:37.629Z,30.73
2018-07-22T13:13:05.458Z,30.66
2018-07-22T13:15:33.169Z,30.59
2018-07-22T13:18:00.996Z,30.88
2018-07-22T13:20:28.698Z,31.20
2018-07-22T13:22:56.722Z,31.76
2018-07-22T13:25:24.491Z,31.61
2018-07-22T13:27:52.243Z,31.85
2018-07-22T13:30:19.930Z,31.77
2018-07-22T13:32:47.635Z,31.21
2018-07-22T13:35:15.455Z,31.48
2018-07-22T13:37:43.175Z,31.69
2018-07-22T13:40:10.961Z,31.78
2018-07-22T13:42:38.724Z,31.85
2018-07-22T13:45:06.542Z,32.29
2018-07-22T13:47:34.249Z,32.68
2018-07-22T13:50:02.079Z,32.82
2018-07-22T13:52:29.895Z,32.72
2018-07-22T13:54:57.660Z,32.88
2018-07-22T13:57:25.408Z,32.54
2018-07-22T13:59:53.197Z,32.60
2018-07-22T14:02:20.948Z,32.35
2018-07-22T14:04:48.668Z,32.19
2018-07-22T14:07:16.404Z,31.98
2018-07-22T14:09:44.147Z,31.88
2018-07-22T14:12:11.888Z,31.78
2018-07-22T14:14:39.591Z,31.56
2018-07-22T14:17:07.308Z,31.33
2018-07-22T14:19:35.115Z,31.13
2018-07-22T14:22:02.863Z,31.01
2018-07-22T14:24:30.617Z,30.60
2018-07-22T14:26:58.347Z,30.52
2018-07-22T14:29:26.189Z,29.89
2018-07-22T14:32:40.700Z,29.37
2018-07-22T14:35:16.219Z,28.88
2018-07-22T14:37:43.954Z,28.65
2018-07-22T14:40:11.684Z,28.40
2018-07-22T14:42:39.402Z,28.27
2018-07-22T14:45:07.682Z,27.98
2018-07-22T14:47:35.535Z,27.43
2018-07-22T14:50:03.410Z,26.85
2018-07-22T14:52:31.179Z,26.66
2018-07-22T14:54:58.934Z,26.28
2018-07-22T14:57:26.710Z,26.17
2018-07-22T14:59:54.451Z,26.11
2018-07-22T15:02:22.187Z,26.16
2018-07-22T15:04:49.918Z,26.25
2018-07-22T15:07:17.890Z,26.19
2018-07-22T15:09:45.643Z,26.20
2018-07-22T15:12:13.479Z,26.16
2018-07-22T15:14:41.261Z,26.16
2018-07-22T15:17:09.045Z,26.24
2018-07-22T15:19:36.786Z,26.02
2018-07-22T15:22:04.591Z,25.96
2018-07-22T15:24:32.409Z,25.85
2018-07-22T15:27:00.135Z,25.92
2018-07-22T15:29:27.848Z,25.88
2018-07-22T15:31:55.587Z,25.80
2018-07-22T15:34:23.300Z,25.83
2018-07-22T15:36:50.987Z,25.58
2018-07-22T15:39:18.688Z,25.33
2018-07-22T15:41:46.374Z,25.36
2018-07-22T15:44:14.113Z,25.35
2018-07-22T15:46:42.115Z,25.22
2018-07-22T15:49:09.877Z,25.06
2018-07-22T15:51:37.609Z,25.15
2018-07-22T15:54:05.316Z,25.11
2018-07-22T15:56:33.026Z,24.91
2018-07-22T15:59:00.818Z,24.67
2018-07-22T16:01:28.630Z,24.52
2018-07-22T16:03:57.453Z,24.43
2018-07-22T16:06:25.120Z,24.38
2018-07-22T16:08:52.846Z,24.34
2018-07-22T16:11:20.646Z,24.30
2018-07-22T16:13:48.317Z,24.43
2018-07-22T16:16:16.221Z,24.43
2018-07-22T16:18:43.858Z,24.35
2018-07-22T16:21:11.508Z,24.28
2018-07-22T16:23:39.482Z,24.27
2018-07-22T16:26:07.148Z,24.26
2018-07-22T16:28:34.938Z,24.23
2018-07-22T16:31:02.670Z,24.24
2018-07-22T16:33:30.507Z,24.14
2018-07-22T16:35:58.183Z,24.11
2018-07-22T16:38:25.814Z,24.02
2018-07-22T16:40:53.557Z,24.04
2018-07-22T16:43:21.417Z,24.16
2018-07-22T16:45:49.366Z,24.15
2018-07-22T16:48:17.134Z,24.09
2018-07-22T16:50:44.892Z,24.04
2018-07-22T16:53:12.613Z,24.08
2018-07-22T16:55:40.249Z,24.07
2018-07-22T16:58:07.973Z,24.09
2018-07-22T17:00:35.621Z,24.07
2018-07-22T17:03:03.281Z,24.14
2018-07-22T17:05:31.070Z,24.21
2018-07-22T17:07:58.746Z,24.18
2018-07-22T17:10:36.595Z,24.22
2018-07-22T17:13:04.393Z,24.24
2018-07-22T17:15:32.036Z,24.27
2018-07-22T17:17:59.705Z,24.22
2018-07-22T17:20:27.459Z,24.17
2018-07-22T17:22:55.229Z,24.22
2018-07-22T17:25:22.933Z,24.26
2018-07-22T17:27:50.655Z,24.31
2018-07-22T17:30:18.361Z,24.29
2018-07-22T17:32:46.108Z,24.25
2018-07-22T17:35:13.805Z,24.29
2018-07-22T17:37:41.565Z,24.14
2018-07-22T17:40:09.418Z,24.20
2018-07-22T17:42:37.205Z,24.13
2018-07-22T17:45:05.040Z,24.20
2018-07-22T17:47:32.733Z,24.19
2018-07-22T17:50:00.538Z,24.18
2018-07-22T17:52:28.294Z,24.10
2018-07-22T17:54:56.146Z,24.11
2018-07-22T17:57:23.892Z,23.97
2018-07-22T17:59:51.518Z,24.04
2018-07-22T18:02:19.220Z,23.88
2018-07-22T18:04:47.099Z,23.88
2018-07-22T18:07:14.813Z,23.92
2018-07-22T18:09:42.484Z,23.81
2018-07-22T18:12:10.238Z,23.75
2018-07-22T18:14:38.073Z,23.79
2018-07-22T18:17:05.809Z,23.92
2018-07-22T18:19:33.466Z,23.94
2018-07-22T18:22:01.226Z,23.83
2018-07-22T18:24:28.992Z,23.85
2018-07-22T18:26:56.876Z,23.91
2018-07-22T18:29:24.734Z,23.91
2018-07-22T18:31:52.406Z,23.94
2018-07-22T18:36:53.709Z,23.98
2018-07-22T18:39:21.433Z,23.96
2018-07-22T18:41:49.238Z,23.88
2018-07-22T18:44:16.910Z,23.90
2018-07-22T18:46:44.596Z,23.91
2018-07-22T18:49:12.630Z,23.88
2018-07-22T18:51:40.461Z,23.91
2018-07-22T18:54:08.199Z,23.85
2018-07-22T18:56:35.849Z,23.81
2018-07-22T18:59:03.647Z,23.81
2018-07-22T19:01:31.295Z,23.78
2018-07-22T19:04:00.199Z,23.78
2018-07-22T19:06:27.866Z,23.74
2018-07-22T19:08:55.868Z,23.59
2018-07-22T19:11:23.538Z,23.46
2018-07-22T19:13:51.238Z,23.46
2018-07-22T19:16:18.937Z,23.42
2018-07-22T19:18:46.645Z,23.32
2018-07-22T19:21:14.781Z,23.24
2018-07-22T19:23:42.409Z,23.27
2018-07-22T19:26:10.178Z,23.33
2018-07-22T19:28:38.020Z,23.21
2018-07-22T19:31:05.705Z,23.01
2018-07-22T19:33:33.475Z,22.98
2018-07-22T19:36:01.225Z,22.74
2018-07-22T19:38:28.951Z,22.64
2018-07-22T19:40:56.646Z,22.66
2018-07-22T19:43:24.560Z,22.32
2018-07-22T19:45:52.276Z,22.49
2018-07-22T19:48:19.925Z,22.58
2018-07-22T19:50:48.182Z,22.72
2018-07-22T19:53:15.857Z,22.48
2018-07-22T19:55:43.554Z,22.49
2018-07-22T19:58:11.168Z,22.56
2018-07-22T20:00:38.951Z,22.76
2018-07-22T20:03:06.974Z,22.79
2018-07-22T20:05:34.766Z,22.84
2018-07-22T20:08:02.469Z,22.81
2018-07-22T20:10:36.825Z,22.60
2018-07-22T20:13:04.514Z,22.54
2018-07-22T20:15:32.173Z,22.34
2018-07-22T20:18:00.049Z,22.46
2018-07-22T20:20:27.789Z,22.43
2018-07-22T20:22:55.602Z,22.54
2018-07-22T20:25:23.446Z,22.52
2018-07-22T20:27:51.229Z,22.47
2018-07-22T20:30:19.028Z,22.51
2018-07-22T20:32:46.942Z,22.54
2018-07-22T20:35:14.585Z,22.53
2018-07-22T20:37:42.286Z,22.51
2018-07-22T20:40:10.128Z,22.44
2018-07-22T20:42:37.922Z,22.38
2018-07-22T20:45:05.627Z,22.34
2018-07-22T20:47:33.336Z,22.29
2018-07-22T20:50:01.061Z,22.29
2018-07-22T20:52:29.489Z,22.24
2018-07-22T20:54:57.182Z,22.26
2018-07-22T20:57:24.982Z,22.28
2018-07-22T20:59:52.597Z,22.21
2018-07-22T21:02:20.310Z,22.19
2018-07-22T21:04:48.038Z,22.14
2018-07-22T21:07:15.665Z,22.12
2018-07-22T21:09:43.330Z,22.12
2018-07-22T21:12:54.454Z,22.05
2018-07-22T21:15:22.132Z,21.93
2018-07-22T21:17:50.692Z,21.89
2018-07-22T21:20:19.493Z,21.89
2018-07-22T21:22:47.317Z,21.90
2018-07-22T21:25:15.529Z,21.82
2018-07-22T21:27:44.354Z,21.73
2018-07-22T21:30:12.616Z,21.77
2018-07-22T21:32:47.177Z,21.79
2018-07-22T21:35:14.920Z,21.80
2018-07-22T21:37:42.669Z,21.85
2018-07-22T21:40:10.409Z,21.82
2018-07-22T21:42:38.045Z,21.83
2018-07-22T21:45:06.547Z,21.76
2018-07-22T21:47:34.525Z,21.67
2018-07-22T21:50:02.334Z,21.63
2018-07-22T21:52:29.981Z,21.61
2018-07-22T21:54:57.681Z,21.60
2018-07-22T21:57:25.315Z,21.56
2018-07-22T21:59:52.947Z,21.55
2018-07-22T22:02:20.657Z,21.51
2018-07-22T22:04:48.325Z,21.53
2018-07-22T22:07:15.999Z,21.34
2018-07-22T22:09:43.661Z,21.26
2018-07-22T22:12:11.333Z,21.32
2018-07-22T22:14:39.025Z,21.35
2018-07-22T22:17:06.805Z,21.23
2018-07-22T22:19:34.402Z,21.28
2018-07-22T22:22:02.130Z,21.22
2018-07-22T22:24:29.845Z,21.20
2018-07-22T22:26:57.537Z,21.01
2018-07-22T22:29:25.283Z,21.10
2018-07-22T22:31:52.925Z,21.18
2018-07-22T22:34:20.626Z,21.18
2018-07-22T22:36:48.402Z,21.16
2018-07-22T22:39:16.043Z,20.99
2018-07-22T22:41:43.681Z,20.73
2018-07-22T22:44:11.420Z,20.74
2018-07-22T22:46:39.757Z,20.62
2018-07-22T22:49:07.713Z,20.61
2018-07-22T22:51:35.345Z,20.66
2018-07-22T22:54:03.073Z,20.41
2018-07-22T22:56:30.813Z,20.44
2018-07-22T22:59:14.198Z,20.63
2018-07-22T23:01:41.917Z,20.29
2018-07-22T23:04:09.565Z,20.31
2018-07-22T23:06:37.360Z,20.45
2018-07-22T23:09:08.182Z,20.60
2018-07-22T23:11:36.133Z,20.66
2018-07-22T23:14:04.090Z,20.63
2018-07-22T23:16:31.925Z,20.62
2018-07-22T23:18:59.641Z,20.60
2018-07-22T23:21:27.252Z,20.60
2018-07-22T23:23:54.953Z,20.59
2018-07-22T23:26:22.650Z,20.62
2018-07-22T23:28:50.368Z,20.59
2018-07-22T23:31:18.025Z,20.57
2018-07-22T23:33:45.656Z,20.56
2018-07-22T23:36:13.386Z,20.56
2018-07-22T23:38:41.013Z,20.59
2018-07-22T23:41:08.662Z,20.57
2018-07-22T23:43:36.339Z,20.58
2018-07-22T23:46:04.228Z,20.50
2018-07-22T23:48:31.905Z,20.48
2018-07-22T23:50:59.558Z,20.52
2018-07-22T23:53:27.285Z,20.45
2018-07-22T23:55:54.955Z,20.32
2018-07-22T23:58:22.601Z,20.25
